Startpagina
METAR-TAF:

METAR-TAF

Vliegvelden :

Internationale luchthaven Koning Abdoel Aziz

Djedda, Saoedi-Arabië

breedte: 21-42N, lengte: 039-11E, hoogte: 15 m

Actueel weer

Dit bericht is 16 minuten geleden gemaakt, om 12:00 UTC
Wind 10 kt uit het westen
Temperatuur 32°C
Vochtigheid 43%
Druk 1009 hPa
Zicht 10 km of meer
Weinig wolken op 3500 ft

METAR: OEJN 221200Z 26010KT 9999 FEW035 32/18 Q1009 NOSIG

Tijdstip: 15:16 (12:16 UTC)

Verwachting

Dit bericht is 1 uur en het 16 minuten geleden gemaakt, om 11:00 UTC
Verwachting geldig van 22 om 12 UTC tot 23 om 18 UTC
Wind 8 kt uit het zuidzuidwesten met uitschieters tot 18 kt
Zicht: 7000 m
Weinig wolken op 4000 ft
Tijdelijke
van 22 om 12 UTC tot 22 om 20 UTC
Weinig wolken op 3500 ft, Cumulonimbus.
Verspreide wolken op 4000 ft

TAF: OEJN 221100Z 2212/2318 20008G18KT 7000 FEW040 TEMPO 2212/2220 FEW035CB SCT040

Waarnemingen en weersverwachtingen van meer dan 4000 vliegvelden (METAR en TAF).

De beschikbare stations zijn de gele en rode punten op de kaart.

Ga met uw muis naar het station om de naam te zien.

Klik dan om waarnemingen en weersverwachtingen te zien.

kaart wijzigen: klik op de groene knoppen met een zwart kruis om in te zoomen, op de groene knop met een streepje om uit te zoomen of op de groene pijlen voor aangrenzende kaarten.


METAR-TAF: